Time;durP1;ratioP1;P1;durP2;ratioP2;P2;SDS_P1;SDS_P2;PMS_P1;PMS_P2;Temp;Humidity;BMP_temperature;BMP_pressure;BME280_temperature;BME280_humidity;BME280_pressure;Samples;Min_cycle;Max_cycle;Signal;HPM_P1;HPM_P2
2024/02/06 00:00:42;;;;;;;10.93;6.57;;;;;;;;;;5053137;28;20310;-65
2024/02/06 00:03:10;;;;;;;8.35;6.57;;;;;;;;;;5046791;28;20204;-62
2024/02/06 00:05:38;;;;;;;10.60;6.60;;;;;;;;;;5042750;28;20216;-63
2024/02/06 00:08:07;;;;;;;14.40;7.05;;;;;;;;;;5044057;28;20199;-62
2024/02/06 00:10:35;;;;;;;14.35;6.13;;;;;;;;;;5050031;28;20840;-62
2024/02/06 00:13:05;;;;;;;15.43;6.57;;;;;;;;;;5052492;28;20257;-64
2024/02/06 00:15:33;;;;;;;13.48;6.30;;;;;;;;;;5053652;28;20288;-64
2024/02/06 00:18:01;;;;;;;12.65;6.25;;;;;;;;;;5044019;28;20690;-63
2024/02/06 00:20:30;;;;;;;16.77;5.90;;;;;;;;;;5045867;28;20228;-62
2024/02/06 00:22:58;;;;;;;17.42;6.35;;;;;;;;;;5035402;28;20233;-63
2024/02/06 00:25:26;;;;;;;22.05;6.53;;;;;;;;;;5047946;28;20234;-63
2024/02/06 00:27:54;;;;;;;9.55;6.22;;;;;;;;;;5049814;28;20504;-64
2024/02/06 00:30:24;;;;;;;13.00;6.35;;;;;;;;;;5047185;28;20190;-62
2024/02/06 00:32:52;;;;;;;10.50;6.30;;;;;;;;;;5050257;28;20207;-63
2024/02/06 00:35:20;;;;;;;20.27;8.23;;;;;;;;;;5032386;28;20208;-62
2024/02/06 00:37:48;;;;;;;13.60;5.78;;;;;;;;;;5031504;28;20209;-64
2024/02/06 00:40:17;;;;;;;8.73;6.78;;;;;;;;;;5045999;28;20227;-63
2024/02/06 00:42:45;;;;;;;21.15;7.40;;;;;;;;;;5030571;28;20216;-63
2024/02/06 00:45:13;;;;;;;12.25;7.28;;;;;;;;;;5038829;28;20196;-64
2024/02/06 00:47:42;;;;;;;14.35;6.47;;;;;;;;;;5040792;28;20208;-63
2024/02/06 00:50:11;;;;;;;14.32;6.85;;;;;;;;;;5050786;28;20599;-63
2024/02/06 00:52:39;;;;;;;11.05;7.03;;;;;;;;;;5046844;28;20211;-63
2024/02/06 00:55:08;;;;;;;15.68;7.13;;;;;;;;;;5030485;28;20209;-63
2024/02/06 00:57:36;;;;;;;18.67;7.65;;;;;;;;;;5046767;28;20609;-63
2024/02/06 01:00:04;;;;;;;12.82;6.85;;;;;;;;;;5036715;28;20225;-63
2024/02/06 01:02:33;;;;;;;22.42;7.00;;;;;;;;;;5042511;28;20208;-62
2024/02/06 01:05:02;;;;;;;14.80;7.85;;;;;;;;;;5049593;28;20262;-62
2024/02/06 01:07:31;;;;;;;9.48;6.00;;;;;;;;;;5049869;28;20195;-63
2024/02/06 01:09:59;;;;;;;16.38;6.38;;;;;;;;;;5049618;28;20211;-63
2024/02/06 01:12:27;;;;;;;17.92;7.40;;;;;;;;;;5050316;28;20733;-62
2024/02/06 01:14:57;;;;;;;13.05;7.43;;;;;;;;;;5050114;28;20201;-62
2024/02/06 01:17:26;;;;;;;14.52;7.70;;;;;;;;;;5041586;28;20571;-63
2024/02/06 01:19:54;;;;;;;19.88;7.20;;;;;;;;;;5047621;28;20238;-64
2024/02/06 01:22:23;;;;;;;14.70;8.05;;;;;;;;;;5049959;28;20239;-63
2024/02/06 01:24:52;;;;;;;11.85;7.00;;;;;;;;;;5042864;28;20201;-63
2024/02/06 01:27:20;;;;;;;12.90;7.63;;;;;;;;;;5049965;28;20261;-63
2024/02/06 01:29:49;;;;;;;22.58;6.80;;;;;;;;;;5050249;28;20994;-62
2024/02/06 01:32:17;;;;;;;17.50;6.68;;;;;;;;;;5047617;28;20209;-63
2024/02/06 01:34:46;;;;;;;17.45;7.05;;;;;;;;;;5044643;28;20204;-64
2024/02/06 01:37:14;;;;;;;14.48;7.30;;;;;;;;;;5045405;28;20552;-64
2024/02/06 01:39:43;;;;;;;14.32;7.82;;;;;;;;;;5045253;28;20277;-63
2024/02/06 01:42:12;;;;;;;11.77;6.18;;;;;;;;;;5049607;28;20205;-63
2024/02/06 01:44:40;;;;;;;16.75;8.00;;;;;;;;;;5047798;28;20200;-63
2024/02/06 01:47:09;;;;;;;16.27;8.00;;;;;;;;;;5042833;28;20219;-62
2024/02/06 01:49:38;;;;;;;18.52;7.57;;;;;;;;;;5048382;28;20189;-62
2024/02/06 01:52:06;;;;;;;11.95;7.55;;;;;;;;;;5048687;28;20611;-63
2024/02/06 01:54:35;;;;;;;17.23;7.80;;;;;;;;;;5033898;28;20207;-62
2024/02/06 01:57:05;;;;;;;14.98;7.15;;;;;;;;;;5031205;28;20225;-63
2024/02/06 01:59:33;;;;;;;13.48;7.55;;;;;;;;;;5038322;28;20575;-62
2024/02/06 02:02:01;;;;;;;15.27;8.27;;;;;;;;;;5029859;28;20648;-65
2024/02/06 02:04:30;;;;;;;12.52;8.05;;;;;;;;;;5042495;28;20284;-65
2024/02/06 02:06:58;;;;;;;16.63;8.25;;;;;;;;;;5047895;28;20231;-66
2024/02/06 02:09:27;;;;;;;13.13;7.55;;;;;;;;;;5048323;28;20204;-65
2024/02/06 02:11:55;;;;;;;17.20;8.07;;;;;;;;;;5047670;28;20201;-66
2024/02/06 02:14:24;;;;;;;12.82;8.23;;;;;;;;;;5046594;28;20197;-66
2024/02/06 02:16:53;;;;;;;10.68;7.90;;;;;;;;;;5039474;28;20663;-66
2024/02/06 02:19:21;;;;;;;22.70;8.75;;;;;;;;;;5038132;28;20200;-66
2024/02/06 02:21:51;;;;;;;21.30;8.80;;;;;;;;;;5045217;28;20294;-66
2024/02/06 02:24:19;;;;;;;21.13;8.30;;;;;;;;;;5039546;28;20208;-66
2024/02/06 02:26:48;;;;;;;12.85;7.25;;;;;;;;;;5048588;28;20204;-66
2024/02/06 02:29:16;;;;;;;14.00;8.50;;;;;;;;;;5046594;28;20702;-66
2024/02/06 02:31:46;;;;;;;12.35;8.68;;;;;;;;;;5032852;28;20319;-66
2024/02/06 02:34:15;;;;;;;14.60;8.85;;;;;;;;;;5030479;28;20200;-65
2024/02/06 02:36:43;;;;;;;13.07;8.32;;;;;;;;;;5046292;28;20210;-67
2024/02/06 02:39:14;;;;;;;18.00;8.77;;;;;;;;;;5041722;28;20676;-66
2024/02/06 02:41:42;;;;;;;12.77;8.70;;;;;;;;;;5028534;28;20205;-66
2024/02/06 02:44:10;;;;;;;17.60;9.20;;;;;;;;;;5044605;28;20204;-66
2024/02/06 02:46:39;;;;;;;16.00;8.43;;;;;;;;;;5047846;28;20227;-66
2024/02/06 02:49:07;;;;;;;15.70;9.13;;;;;;;;;;5042607;28;20209;-66
2024/02/06 02:51:35;;;;;;;13.98;7.72;;;;;;;;;;5037082;28;20197;-65
2024/02/06 02:54:03;;;;;;;17.65;8.40;;;;;;;;;;5027890;28;20227;-66
2024/02/06 02:56:33;;;;;;;21.95;10.38;;;;;;;;;;5046499;28;20231;-66
2024/02/06 02:59:01;;;;;;;14.23;10.15;;;;;;;;;;5047631;28;20196;-66
2024/02/06 03:01:30;;;;;;;20.45;9.77;;;;;;;;;;5044340;28;20223;-65
2024/02/06 03:03:58;;;;;;;21.23;9.25;;;;;;;;;;5043878;28;20211;-66
2024/02/06 03:06:26;;;;;;;17.80;9.43;;;;;;;;;;5046071;28;20251;-66
2024/02/06 03:08:55;;;;;;;26.23;13.52;;;;;;;;;;5047251;28;20196;-66
2024/02/06 03:11:25;;;;;;;24.05;14.82;;;;;;;;;;5039620;28;20684;-65
2024/02/06 03:13:55;;;;;;;19.58;11.88;;;;;;;;;;5047511;28;20192;-66
2024/02/06 03:16:23;;;;;;;23.00;17.08;;;;;;;;;;5038475;28;20212;-66
2024/02/06 03:18:52;;;;;;;26.50;19.85;;;;;;;;;;5040497;28;20208;-66
2024/02/06 03:21:20;;;;;;;22.73;11.30;;;;;;;;;;5042678;28;20578;-66
2024/02/06 03:23:48;;;;;;;19.50;13.18;;;;;;;;;;5039752;28;20197;-65
2024/02/06 03:26:16;;;;;;;14.75;9.65;;;;;;;;;;5047820;28;20212;-66
2024/02/06 03:28:44;;;;;;;21.75;10.25;;;;;;;;;;5033998;28;20203;-66
2024/02/06 03:31:14;;;;;;;20.45;11.15;;;;;;;;;;5047691;28;20200;-66
2024/02/06 03:33:42;;;;;;;21.10;12.00;;;;;;;;;;5047344;28;20204;-66
2024/02/06 03:36:10;;;;;;;20.58;9.45;;;;;;;;;;5047532;28;20200;-66
2024/02/06 03:38:38;;;;;;;16.70;9.98;;;;;;;;;;5032188;28;20565;-66
2024/02/06 03:41:07;;;;;;;15.00;9.07;;;;;;;;;;5038391;28;20230;-65
2024/02/06 03:43:35;;;;;;;15.68;8.38;;;;;;;;;;5045974;28;20235;-65
2024/02/06 03:46:03;;;;;;;16.83;9.57;;;;;;;;;;5047256;28;20265;-66
2024/02/06 03:48:34;;;;;;;13.40;8.75;;;;;;;;;;5047107;28;20223;-65
2024/02/06 03:51:03;;;;;;;15.90;8.70;;;;;;;;;;5046934;28;20189;-66
2024/02/06 03:53:31;;;;;;;16.65;9.82;;;;;;;;;;5046623;28;20211;-66
2024/02/06 03:55:59;;;;;;;16.58;9.23;;;;;;;;;;5048801;28;20254;-65
2024/02/06 03:58:27;;;;;;;16.25;9.05;;;;;;;;;;5051647;28;20193;-65
2024/02/06 04:00:56;;;;;;;18.13;10.18;;;;;;;;;;5050600;28;20224;-66
2024/02/06 04:03:24;;;;;;;20.02;9.43;;;;;;;;;;5049241;28;20208;-65
2024/02/06 04:05:53;;;;;;;16.45;10.20;;;;;;;;;;5050108;28;20205;-66
2024/02/06 04:08:22;;;;;;;18.58;8.73;;;;;;;;;;5043879;28;20202;-65
2024/02/06 04:10:50;;;;;;;23.55;8.95;;;;;;;;;;5050550;28;20211;-66
2024/02/06 04:13:18;;;;;;;18.13;10.23;;;;;;;;;;5050363;28;20640;-66
2024/02/06 04:15:46;;;;;;;21.85;10.55;;;;;;;;;;5050811;28;20498;-66
2024/02/06 04:18:14;;;;;;;19.83;9.63;;;;;;;;;;5050616;28;20736;-66
2024/02/06 04:20:43;;;;;;;14.15;9.38;;;;;;;;;;5036428;28;20205;-66
2024/02/06 04:23:12;;;;;;;15.32;10.40;;;;;;;;;;5030730;28;20237;-65
2024/02/06 04:25:40;;;;;;;12.90;9.52;;;;;;;;;;5042551;28;20196;-65
2024/02/06 04:28:09;;;;;;;18.23;10.32;;;;;;;;;;5030242;28;20205;-65
2024/02/06 04:30:37;;;;;;;26.60;11.27;;;;;;;;;;5042650;28;20204;-66
2024/02/06 04:33:05;;;;;;;21.60;9.52;;;;;;;;;;5041311;28;20213;-66
2024/02/06 04:35:33;;;;;;;15.23;8.40;;;;;;;;;;5046029;28;20210;-65
2024/02/06 04:38:02;;;;;;;16.50;10.98;;;;;;;;;;5043036;28;20203;-65
2024/02/06 04:40:31;;;;;;;13.50;10.20;;;;;;;;;;5036409;28;20201;-66
2024/02/06 04:43:00;;;;;;;19.85;8.95;;;;;;;;;;5029826;28;20225;-65
2024/02/06 04:45:28;;;;;;;13.60;8.55;;;;;;;;;;5029799;28;20235;-66
2024/02/06 04:47:56;;;;;;;13.57;9.63;;;;;;;;;;5048079;28;20213;-66
2024/02/06 04:50:24;;;;;;;21.33;9.45;;;;;;;;;;5049305;28;20199;-66
2024/02/06 04:52:55;;;;;;;18.25;10.77;;;;;;;;;;5049931;28;20197;-65
2024/02/06 04:55:23;;;;;;;14.75;9.73;;;;;;;;;;5049619;28;20547;-66
2024/02/06 04:57:52;;;;;;;18.35;11.85;;;;;;;;;;5049822;28;20277;-65
2024/02/06 05:00:20;;;;;;;18.27;8.80;;;;;;;;;;5049981;28;20200;-66
2024/02/06 05:02:48;;;;;;;14.05;9.13;;;;;;;;;;5048963;28;20224;-66
2024/02/06 05:05:16;;;;;;;15.77;8.25;;;;;;;;;;5048730;28;20201;-66
2024/02/06 05:07:45;;;;;;;18.10;9.82;;;;;;;;;;5048370;28;20242;-66
2024/02/06 05:10:13;;;;;;;15.48;8.90;;;;;;;;;;5035662;28;20201;-66
2024/02/06 05:12:42;;;;;;;17.48;9.85;;;;;;;;;;5028092;28;20201;-66
2024/02/06 05:15:12;;;;;;;14.07;8.77;;;;;;;;;;5029205;28;20205;-65
2024/02/06 05:17:41;;;;;;;10.05;7.18;;;;;;;;;;5029542;28;20626;-66
2024/02/06 05:20:09;;;;;;;13.73;8.50;;;;;;;;;;5044114;28;20681;-65
2024/02/06 05:22:38;;;;;;;13.43;8.63;;;;;;;;;;5049603;28;20224;-66
2024/02/06 05:25:06;;;;;;;10.55;7.43;;;;;;;;;;5049672;28;20204;-65
2024/02/06 05:27:35;;;;;;;11.77;8.38;;;;;;;;;;5049765;28;20208;-65
2024/02/06 05:30:05;;;;;;;11.88;7.90;;;;;;;;;;5049208;28;20204;-65
2024/02/06 05:32:35;;;;;;;14.10;7.85;;;;;;;;;;5047563;28;20200;-66
2024/02/06 05:35:04;;;;;;;20.55;8.38;;;;;;;;;;5029462;28;20204;-65
2024/02/06 05:37:32;;;;;;;8.63;6.50;;;;;;;;;;5029211;28;20206;-66
2024/02/06 05:40:01;;;;;;;8.98;7.85;;;;;;;;;;5043327;28;20205;-66
2024/02/06 05:42:29;;;;;;;12.57;7.68;;;;;;;;;;5046097;28;20220;-65
2024/02/06 05:44:57;;;;;;;11.90;7.03;;;;;;;;;;5048950;28;20545;-66
2024/02/06 05:47:25;;;;;;;7.15;6.45;;;;;;;;;;5036894;28;20274;-65
2024/02/06 05:49:55;;;;;;;8.88;6.20;;;;;;;;;;5048870;28;20200;-65
2024/02/06 05:52:23;;;;;;;15.77;8.45;;;;;;;;;;5048860;28;20197;-66
2024/02/06 05:54:51;;;;;;;11.52;7.15;;;;;;;;;;5048800;28;20208;-65
2024/02/06 05:57:20;;;;;;;15.82;7.20;;;;;;;;;;5047647;28;20266;-66
2024/02/06 05:59:48;;;;;;;9.90;6.90;;;;;;;;;;5047499;28;20196;-65
2024/02/06 06:02:16;;;;;;;11.90;7.60;;;;;;;;;;5046981;28;20213;-67
2024/02/06 06:04:46;;;;;;;10.13;7.28;;;;;;;;;;5027988;28;20259;-66
2024/02/06 06:07:15;;;;;;;8.10;5.82;;;;;;;;;;5046095;28;20211;-65
2024/02/06 06:09:44;;;;;;;8.48;6.43;;;;;;;;;;5042503;28;20197;-65
2024/02/06 06:12:12;;;;;;;13.25;6.95;;;;;;;;;;5048152;28;20200;-66
2024/02/06 06:14:40;;;;;;;11.00;7.07;;;;;;;;;;5047845;28;20207;-66
2024/02/06 06:17:08;;;;;;;13.75;6.50;;;;;;;;;;5030493;28;20675;-65
2024/02/06 06:19:36;;;;;;;10.95;6.88;;;;;;;;;;5036001;28;20200;-65
2024/02/06 06:22:07;;;;;;;8.93;5.78;;;;;;;;;;5040800;28;20233;-66
2024/02/06 06:24:37;;;;;;;6.60;5.22;;;;;;;;;;5033565;28;20207;-65
2024/02/06 06:27:05;;;;;;;8.45;6.25;;;;;;;;;;5045270;28;20215;-65
2024/02/06 06:29:33;;;;;;;11.45;6.45;;;;;;;;;;5045151;28;20201;-66
2024/02/06 06:32:01;;;;;;;7.88;5.50;;;;;;;;;;5035328;28;20193;-65
2024/02/06 06:34:30;;;;;;;9.63;6.10;;;;;;;;;;5043437;28;20205;-65
2024/02/06 06:36:58;;;;;;;11.00;6.70;;;;;;;;;;5039442;28;20201;-66
2024/02/06 06:39:27;;;;;;;11.02;6.03;;;;;;;;;;5048449;28;20589;-66
2024/02/06 06:41:56;;;;;;;7.90;5.68;;;;;;;;;;5048053;28;20224;-66
2024/02/06 06:44:24;;;;;;;8.15;6.80;;;;;;;;;;5046988;28;20204;-66
2024/02/06 06:46:53;;;;;;;7.95;6.32;;;;;;;;;;5032233;28;20201;-66
2024/02/06 06:49:21;;;;;;;6.43;4.90;;;;;;;;;;5045120;28;20200;-66
2024/02/06 06:51:50;;;;;;;9.80;6.13;;;;;;;;;;5039017;28;20205;-66
2024/02/06 06:54:18;;;;;;;7.03;5.15;;;;;;;;;;5039395;28;20282;-65
2024/02/06 06:56:46;;;;;;;11.50;6.53;;;;;;;;;;5043301;28;20224;-66
2024/02/06 06:59:15;;;;;;;9.07;5.43;;;;;;;;;;5046835;28;20751;-66
2024/02/06 07:01:44;;;;;;;6.45;5.85;;;;;;;;;;5045408;28;20274;-67
2024/02/06 07:04:12;;;;;;;12.15;5.22;;;;;;;;;;5045797;28;20668;-66
2024/02/06 07:06:40;;;;;;;7.50;5.07;;;;;;;;;;5046063;28;20218;-66
2024/02/06 07:09:09;;;;;;;10.02;5.97;;;;;;;;;;5047489;28;20203;-67
2024/02/06 07:11:37;;;;;;;9.73;5.13;;;;;;;;;;5030559;28;20211;-66
2024/02/06 07:14:05;;;;;;;13.30;6.03;;;;;;;;;;5027429;28;20205;-67
2024/02/06 07:16:35;;;;;;;7.32;5.85;;;;;;;;;;5027861;28;20205;-67
2024/02/06 07:19:03;;;;;;;5.32;4.68;;;;;;;;;;5032039;28;20244;-67
2024/02/06 07:21:31;;;;;;;14.30;5.82;;;;;;;;;;5048038;28;20285;-66
2024/02/06 07:23:59;;;;;;;7.85;5.53;;;;;;;;;;5032191;28;20278;-66
2024/02/06 07:26:28;;;;;;;9.20;5.10;;;;;;;;;;5047790;28;20615;-67
2024/02/06 07:28:57;;;;;;;7.55;4.68;;;;;;;;;;5047927;28;20196;-67
2024/02/06 07:31:25;;;;;;;7.53;5.65;;;;;;;;;;5047201;28;20215;-67
2024/02/06 07:33:54;;;;;;;10.52;5.03;;;;;;;;;;5049928;28;20261;-64
2024/02/06 07:36:24;;;;;;;8.00;4.35;;;;;;;;;;5053353;28;20660;-63
2024/02/06 07:38:52;;;;;;;5.80;4.90;;;;;;;;;;5042887;28;20212;-63
2024/02/06 07:41:20;;;;;;;7.93;5.15;;;;;;;;;;5048755;28;20201;-63
2024/02/06 07:43:48;;;;;;;9.25;4.68;;;;;;;;;;5049957;28;20658;-64
2024/02/06 07:46:17;;;;;;;5.40;4.90;;;;;;;;;;5052711;28;20279;-64
2024/02/06 07:48:46;;;;;;;12.20;5.72;;;;;;;;;;5050718;28;20575;-63
2024/02/06 07:51:15;;;;;;;7.78;5.20;;;;;;;;;;5048308;28;20261;-64
2024/02/06 07:53:44;;;;;;;5.30;4.75;;;;;;;;;;5048605;28;20205;-64
2024/02/06 07:56:12;;;;;;;9.45;4.57;;;;;;;;;;5030843;28;20211;-64
2024/02/06 07:58:40;;;;;;;8.52;4.80;;;;;;;;;;5034761;28;20265;-62
2024/02/06 08:01:11;;;;;;;9.68;4.95;;;;;;;;;;5051103;28;20204;-64
2024/02/06 08:03:39;;;;;;;5.97;4.72;;;;;;;;;;5046308;28;20224;-63
2024/02/06 08:06:08;;;;;;;8.13;5.50;;;;;;;;;;5050709;28;20210;-63
2024/02/06 08:08:37;;;;;;;8.00;5.00;;;;;;;;;;5048799;28;20204;-63
2024/02/06 08:11:05;;;;;;;5.80;4.80;;;;;;;;;;5049200;28;20663;-63
2024/02/06 08:13:34;;;;;;;7.38;4.18;;;;;;;;;;5037515;28;20201;-63
2024/02/06 08:16:02;;;;;;;6.50;5.00;;;;;;;;;;5035707;28;20222;-64
2024/02/06 08:18:30;;;;;;;5.15;4.65;;;;;;;;;;5053396;28;20276;-64
2024/02/06 08:20:58;;;;;;;5.50;4.95;;;;;;;;;;5035104;28;20257;-67
2024/02/06 08:23:26;;;;;;;5.95;4.50;;;;;;;;;;5034784;28;20265;-66
2024/02/06 08:25:56;;;;;;;7.53;5.00;;;;;;;;;;5034399;28;20285;-64
2024/02/06 08:28:24;;;;;;;7.70;4.93;;;;;;;;;;5048658;28;20211;-63
2024/02/06 08:30:52;;;;;;;7.43;4.15;;;;;;;;;;5051513;28;20641;-63
2024/02/06 08:33:21;;;;;;;7.53;5.13;;;;;;;;;;5045892;28;20711;-63
2024/02/06 08:35:52;;;;;;;7.38;5.65;;;;;;;;;;5037446;28;20235;-62
2024/02/06 08:38:20;;;;;;;6.80;4.50;;;;;;;;;;5046222;28;20193;-63
2024/02/06 08:40:48;;;;;;;7.75;3.75;;;;;;;;;;5050426;28;20209;-64
2024/02/06 08:43:18;;;;;;;9.82;4.00;;;;;;;;;;5051337;28;20598;-64
2024/02/06 08:45:49;;;;;;;9.70;5.18;;;;;;;;;;5053542;28;20209;-62
2024/02/06 08:48:17;;;;;;;7.35;3.85;;;;;;;;;;5049669;28;20193;-62
2024/02/06 08:50:49;;;;;;;5.00;4.25;;;;;;;;;;5051479;28;20207;-63
2024/02/06 08:53:17;;;;;;;8.45;5.63;;;;;;;;;;5051982;28;20235;-63
2024/02/06 08:55:45;;;;;;;5.40;4.88;;;;;;;;;;5038485;28;20202;-63
2024/02/06 08:58:14;;;;;;;6.03;5.20;;;;;;;;;;5033470;28;20221;-64
2024/02/06 09:00:43;;;;;;;9.50;5.53;;;;;;;;;;5048091;28;20754;-63
2024/02/06 09:03:11;;;;;;;9.73;4.72;;;;;;;;;;5052758;28;20298;-63
2024/02/06 09:05:40;;;;;;;5.50;4.97;;;;;;;;;;5051421;28;20205;-65
2024/02/06 09:08:08;;;;;;;5.95;4.40;;;;;;;;;;5053815;28;20689;-62
2024/02/06 09:10:37;;;;;;;7.93;4.90;;;;;;;;;;5055942;28;20680;-63
2024/02/06 09:13:05;;;;;;;11.07;5.45;;;;;;;;;;5037003;28;20205;-63
2024/02/06 09:15:33;;;;;;;9.02;4.95;;;;;;;;;;5033277;28;20208;-62
2024/02/06 09:18:03;;;;;;;7.30;5.63;;;;;;;;;;5033154;28;20294;-63
2024/02/06 09:20:31;;;;;;;8.68;4.80;;;;;;;;;;5047316;28;20207;-62
2024/02/06 09:22:59;;;;;;;10.70;5.68;;;;;;;;;;5055479;28;20232;-64
2024/02/06 09:25:27;;;;;;;7.50;5.90;;;;;;;;;;5051306;28;20209;-62
2024/02/06 09:27:56;;;;;;;7.65;5.25;;;;;;;;;;5054458;28;20204;-63
2024/02/06 09:30:25;;;;;;;9.40;5.30;;;;;;;;;;5054279;28;20209;-64
2024/02/06 09:32:54;;;;;;;11.02;6.95;;;;;;;;;;5055685;28;20254;-64
2024/02/06 09:35:23;;;;;;;7.72;6.00;;;;;;;;;;5052240;28;20205;-64
2024/02/06 09:37:53;;;;;;;17.42;7.70;;;;;;;;;;5052523;28;20208;-64
2024/02/06 09:40:21;;;;;;;9.38;6.07;;;;;;;;;;5052375;28;20211;-64
2024/02/06 09:42:49;;;;;;;14.52;7.20;;;;;;;;;;5052091;28;20212;-65
2024/02/06 09:45:18;;;;;;;9.77;6.32;;;;;;;;;;5052049;28;20761;-64
2024/02/06 09:47:46;;;;;;;7.82;5.80;;;;;;;;;;5051024;28;20663;-64
2024/02/06 09:50:14;;;;;;;11.40;6.40;;;;;;;;;;5051208;28;20219;-63
2024/02/06 09:52:45;;;;;;;8.85;6.60;;;;;;;;;;5053063;28;20690;-64
2024/02/06 09:55:14;;;;;;;9.88;5.80;;;;;;;;;;5053040;28;20697;-65
2024/02/06 09:57:44;;;;;;;11.32;6.97;;;;;;;;;;5051043;28;20233;-64
2024/02/06 10:00:12;;;;;;;10.93;6.85;;;;;;;;;;5047408;28;20213;-66
2024/02/06 10:02:43;;;;;;;6.95;6.22;;;;;;;;;;5055490;28;20208;-63
2024/02/06 10:05:14;;;;;;;13.60;7.10;;;;;;;;;;5053743;28;20211;-63
2024/02/06 10:07:43;;;;;;;7.20;5.85;;;;;;;;;;5055774;28;20338;-67
2024/02/06 10:10:12;;;;;;;7.00;5.80;;;;;;;;;;5057614;28;20257;-66
2024/02/06 10:12:41;;;;;;;9.98;6.45;;;;;;;;;;5052739;28;20204;-64
2024/02/06 10:15:11;;;;;;;8.65;6.85;;;;;;;;;;5035588;28;20195;-63
2024/02/06 10:17:39;;;;;;;12.00;6.38;;;;;;;;;;5053455;28;20207;-64
2024/02/06 10:20:11;;;;;;;8.52;6.15;;;;;;;;;;5048048;28;20279;-66
2024/02/06 10:22:39;;;;;;;13.18;6.22;;;;;;;;;;5048047;28;20787;-65
2024/02/06 10:25:09;;;;;;;6.82;5.63;;;;;;;;;;5056288;28;20224;-64
2024/02/06 10:27:39;;;;;;;9.60;6.03;;;;;;;;;;5047117;28;20196;-66
2024/02/06 10:30:09;;;;;;;8.55;6.88;;;;;;;;;;5035020;28;20266;-63
2024/02/06 10:32:38;;;;;;;10.27;6.72;;;;;;;;;;5047648;28;20204;-63
2024/02/06 10:35:08;;;;;;;12.68;7.18;;;;;;;;;;5055754;28;20284;-64
2024/02/06 10:37:37;;;;;;;8.27;6.38;;;;;;;;;;5055580;28;20291;-64
2024/02/06 10:40:11;;;;;;;10.88;6.72;;;;;;;;;;5052354;28;20200;-65
2024/02/06 10:42:40;;;;;;;11.98;5.85;;;;;;;;;;5052195;28;20250;-64
2024/02/06 10:45:09;;;;;;;7.22;5.90;;;;;;;;;;5051465;28;20217;-64
2024/02/06 10:47:37;;;;;;;11.25;7.00;;;;;;;;;;5054706;28;20279;-63
2024/02/06 10:50:05;;;;;;;11.13;6.45;;;;;;;;;;5057730;28;20256;-64
2024/02/06 10:52:34;;;;;;;8.13;7.32;;;;;;;;;;5059337;28;20287;-64
2024/02/06 10:55:03;;;;;;;10.40;6.05;;;;;;;;;;5061004;28;20703;-64
2024/02/06 10:57:34;;;;;;;8.50;6.88;;;;;;;;;;5060282;28;20295;-63
2024/02/06 11:00:07;;;;;;;7.68;5.70;;;;;;;;;;5059108;28;20263;-66
2024/02/06 11:02:36;;;;;;;10.45;5.72;;;;;;;;;;5058388;28;20276;-65
2024/02/06 11:05:08;;;;;;;12.50;6.53;;;;;;;;;;5052281;28;20685;-64
2024/02/06 11:07:38;;;;;;;8.05;5.78;;;;;;;;;;5050677;28;20192;-64
2024/02/06 11:10:07;;;;;;;13.45;6.25;;;;;;;;;;5055251;28;20196;-65
2024/02/06 11:12:38;;;;;;;8.02;6.55;;;;;;;;;;5055320;28;20630;-64
2024/02/06 11:15:09;;;;;;;9.93;5.97;;;;;;;;;;5039767;28;20272;-64
2024/02/06 11:17:39;;;;;;;8.60;5.63;;;;;;;;;;5053142;28;20287;-64
2024/02/06 11:20:13;;;;;;;9.10;6.20;;;;;;;;;;5056902;28;20691;-65
2024/02/06 11:22:44;;;;;;;7.25;5.90;;;;;;;;;;5054217;28;20314;-64
2024/02/06 11:25:15;;;;;;;8.77;5.95;;;;;;;;;;5054018;28;20220;-64
2024/02/06 11:27:45;;;;;;;5.97;5.38;;;;;;;;;;5053337;28;20211;-65
2024/02/06 11:30:16;;;;;;;8.93;5.75;;;;;;;;;;5051470;28;20197;-65
2024/02/06 11:32:44;;;;;;;7.38;6.40;;;;;;;;;;5047179;28;20714;-65
2024/02/06 11:35:13;;;;;;;7.75;5.97;;;;;;;;;;5053155;28;20193;-64
2024/02/06 11:37:41;;;;;;;8.30;5.78;;;;;;;;;;5053745;28;20216;-66
2024/02/06 11:40:13;;;;;;;8.32;6.30;;;;;;;;;;5050648;28;20211;-68
2024/02/06 11:42:42;;;;;;;7.50;6.45;;;;;;;;;;5051965;28;20269;-65
2024/02/06 11:45:13;;;;;;;6.40;5.80;;;;;;;;;;5052988;28;20230;-64
2024/02/06 11:47:51;;;;;;;9.90;6.47;;;;;;;;;;5053186;28;20188;-64
2024/02/06 11:50:26;;;;;;;7.68;6.13;;;;;;;;;;5057552;28;20256;-66
2024/02/06 11:52:59;;;;;;;6.82;5.60;;;;;;;;;;5054876;28;20602;-63
2024/02/06 11:55:28;;;;;;;6.20;5.10;;;;;;;;;;5052729;28;20189;-63
2024/02/06 11:57:56;;;;;;;7.38;5.30;;;;;;;;;;5038989;28;20601;-65
2024/02/06 12:00:26;;;;;;;7.30;6.40;;;;;;;;;;5046792;28;20238;-65
2024/02/06 12:02:54;;;;;;;6.10;5.38;;;;;;;;;;5040312;28;20250;-65
2024/02/06 12:05:23;;;;;;;6.20;4.88;;;;;;;;;;5033514;28;20319;-66
2024/02/06 12:08:00;;;;;;;5.30;4.80;;;;;;;;;;5038806;28;20204;-65
2024/02/06 12:10:30;;;;;;;8.95;5.55;;;;;;;;;;5037251;28;20193;-65
2024/02/06 12:13:01;;;;;;;6.47;4.28;;;;;;;;;;5033439;28;20726;-67
2024/02/06 12:15:30;;;;;;;8.32;4.45;;;;;;;;;;5036988;28;20216;-66
2024/02/06 12:17:59;;;;;;;8.45;4.10;;;;;;;;;;5042406;28;20208;-65
2024/02/06 12:20:27;;;;;;;6.65;4.70;;;;;;;;;;5043775;28;20224;-64
2024/02/06 12:22:59;;;;;;;4.10;3.80;;;;;;;;;;5043728;28;20566;-65
2024/02/06 12:25:28;;;;;;;4.45;4.05;;;;;;;;;;5041316;28;20286;-65
2024/02/06 12:28:00;;;;;;;4.80;4.40;;;;;;;;;;5051794;28;20210;-65
2024/02/06 12:30:28;;;;;;;5.47;3.97;;;;;;;;;;5052922;28;20310;-64
2024/02/06 12:32:59;;;;;;;4.60;4.20;;;;;;;;;;5050707;28;20720;-65
2024/02/06 12:35:27;;;;;;;4.50;4.13;;;;;;;;;;5052510;28;20189;-64
2024/02/06 12:37:59;;;;;;;5.10;4.15;;;;;;;;;;5044549;28;20196;-68
2024/02/06 12:40:31;;;;;;;5.28;4.75;;;;;;;;;;5047801;28;20195;-65
2024/02/06 12:43:02;;;;;;;5.82;4.30;;;;;;;;;;5039814;28;20193;-67
2024/02/06 12:45:31;;;;;;;7.45;4.22;;;;;;;;;;5055705;28;20209;-64
2024/02/06 12:48:01;;;;;;;4.10;3.70;;;;;;;;;;5047334;28;20323;-65
2024/02/06 12:50:29;;;;;;;6.88;4.95;;;;;;;;;;5050742;28;20255;-66
2024/02/06 12:52:59;;;;;;;3.45;3.25;;;;;;;;;;5048641;28;20271;-64
2024/02/06 12:55:28;;;;;;;7.25;3.85;;;;;;;;;;5048778;28;20268;-63
2024/02/06 12:57:56;;;;;;;7.65;4.32;;;;;;;;;;5041761;28;20598;-64
2024/02/06 13:00:25;;;;;;;4.70;4.30;;;;;;;;;;5047327;28;20195;-64
2024/02/06 13:02:59;;;;;;;4.57;3.90;;;;;;;;;;5041904;28;20196;-64
2024/02/06 13:05:29;;;;;;;4.95;4.45;;;;;;;;;;5049724;28;20207;-65
2024/02/06 13:08:04;;;;;;;4.88;4.43;;;;;;;;;;5051861;28;20348;-64
2024/02/06 13:10:33;;;;;;;5.85;3.95;;;;;;;;;;5043412;28;20197;-65
2024/02/06 13:13:03;;;;;;;7.10;4.53;;;;;;;;;;5044450;28;20204;-64
2024/02/06 13:15:32;;;;;;;5.28;4.03;;;;;;;;;;5049098;28;20193;-64
2024/02/06 13:18:00;;;;;;;7.57;5.68;;;;;;;;;;5040387;28;20288;-64
2024/02/06 13:20:32;;;;;;;5.60;5.00;;;;;;;;;;5051284;28;20215;-65
2024/02/06 13:23:09;;;;;;;5.30;4.43;;;;;;;;;;5048067;28;20637;-65
2024/02/06 13:25:38;;;;;;;5.07;4.63;;;;;;;;;;5047268;28;20230;-64
2024/02/06 13:28:07;;;;;;;4.35;4.05;;;;;;;;;;5041640;28;20275;-63
2024/02/06 13:30:35;;;;;;;7.65;5.15;;;;;;;;;;5046490;28;20215;-65
2024/02/06 13:33:03;;;;;;;5.50;4.95;;;;;;;;;;5049386;28;20223;-64
2024/02/06 13:35:33;;;;;;;7.75;6.55;;;;;;;;;;5049244;28;20651;-66
2024/02/06 13:38:01;;;;;;;6.15;4.53;;;;;;;;;;5046150;28;20206;-65
2024/02/06 13:40:29;;;;;;;8.57;7.88;;;;;;;;;;5047467;28;20207;-64
2024/02/06 13:42:59;;;;;;;7.82;6.22;;;;;;;;;;5055603;28;20201;-65
2024/02/06 13:45:27;;;;;;;10.13;9.23;;;;;;;;;;5056874;28;20299;-65
2024/02/06 13:47:55;;;;;;;11.15;10.02;;;;;;;;;;5067975;28;20275;-65
2024/02/06 13:50:23;;;;;;;8.77;7.53;;;;;;;;;;5049091;28;20274;-63
2024/02/06 13:52:53;;;;;;;8.88;7.90;;;;;;;;;;5052738;28;20200;-64
2024/02/06 13:55:21;;;;;;;5.70;5.30;;;;;;;;;;5051854;28;20210;-64
2024/02/06 13:57:49;;;;;;;4.50;4.20;;;;;;;;;;5050981;28;20229;-63
2024/02/06 14:00:17;;;;;;;7.57;6.85;;;;;;;;;;5042766;28;20569;-65
2024/02/06 14:02:46;;;;;;;5.95;4.43;;;;;;;;;;5039397;28;20200;-64
2024/02/06 14:05:14;;;;;;;7.35;6.72;;;;;;;;;;5049928;28;20215;-66
2024/02/06 14:07:42;;;;;;;14.27;9.50;;;;;;;;;;5050931;28;20398;-64
2024/02/06 14:10:13;;;;;;;22.08;15.77;;;;;;;;;;5051254;28;20213;-64
2024/02/06 14:12:41;;;;;;;18.23;15.25;;;;;;;;;;5052973;28;20269;-63
2024/02/06 14:15:09;;;;;;;11.73;10.55;;;;;;;;;;5050387;28;20240;-65
2024/02/06 14:17:38;;;;;;;9.75;8.77;;;;;;;;;;5051547;28;20207;-67
2024/02/06 14:20:06;;;;;;;5.13;4.72;;;;;;;;;;5051148;28;20197;-63
2024/02/06 14:22:35;;;;;;;6.70;5.97;;;;;;;;;;5053209;28;20308;-63
2024/02/06 14:25:04;;;;;;;5.22;4.65;;;;;;;;;;5052591;28;20209;-64
2024/02/06 14:27:34;;;;;;;6.10;5.60;;;;;;;;;;5048958;28;20217;-65
2024/02/06 14:30:03;;;;;;;7.10;5.23;;;;;;;;;;5038180;28;21328;-64
2024/02/06 14:32:32;;;;;;;6.47;5.40;;;;;;;;;;5049574;28;21032;-64
2024/02/06 14:35:00;;;;;;;6.60;5.13;;;;;;;;;;5049897;28;20205;-64
2024/02/06 14:37:28;;;;;;;5.50;4.97;;;;;;;;;;5047833;28;20277;-67
2024/02/06 14:39:56;;;;;;;6.90;6.40;;;;;;;;;;5047809;28;21183;-65
2024/02/06 14:42:25;;;;;;;5.53;5.23;;;;;;;;;;5047441;28;20651;-65
2024/02/06 14:44:54;;;;;;;7.50;6.90;;;;;;;;;;5045283;28;21299;-64